Cayuga, Indiana
Current Conditions -  °F | °C
As of 12:15 AM on Monday 20 Oct 2014 (Local Time) from KDNV Reporting Station
Broken Clouds Broken Clouds  
Wind Chill:   Ceiling: 9500
Heat Index:   Visibility: 10mi
Dew Point:   Wind: 8mph
Humidity: 84%   Direction: 200°SSW
Pressure: 29.98"   Gusts: NA
Location:  39.95°N, 87.46°W
Report Text: KDNV 200415Z AUTO 20007KT 10SM BKN095 09/06 A2998 RMK AO2 T00850060
Loading
Personal Weather Stations






























Interactive Weather Map
Tropical Storm Tracking
New forecast layout! Learn more

10-Day Weather Forecast

Advertisements
Track Severe Weather on mobile